createdAt,value
2023-03-02T00:04:20.797Z,100663.03
2023-03-02T00:09:22.394Z,100662.25
2023-03-02T00:14:23.899Z,100655.56
2023-03-02T00:19:26.457Z,100648.06
2023-03-02T00:24:27.954Z,100651.38
2023-03-02T00:29:29.370Z,100645.50
2023-03-02T00:34:33.747Z,100643.84
2023-03-02T00:39:35.202Z,100639.59
2023-03-02T00:44:36.642Z,100643.75
2023-03-02T00:49:38.396Z,100646.25
2023-03-02T00:54:39.841Z,100644.59
2023-03-02T00:59:41.386Z,100643.81
2023-03-02T01:04:44.469Z,100637.13
2023-03-02T01:09:45.980Z,100632.13
2023-03-02T01:14:49.008Z,100630.50
2023-03-02T01:19:50.752Z,100633.88
2023-03-02T01:24:53.353Z,100618.03
2023-03-02T01:29:55.081Z,100601.31
2023-03-02T01:34:56.508Z,100606.34
2023-03-02T01:39:57.906Z,100601.34
2023-03-02T01:44:59.483Z,100598.03
2023-03-02T01:50:21.181Z,100593.81
2023-03-02T01:55:25.891Z,100586.25
2023-03-02T02:00:31.866Z,100585.41
2023-03-02T02:05:33.313Z,100576.19
2023-03-02T02:10:35.850Z,100572.88
2023-03-02T02:15:38.974Z,100567.00
2023-03-02T02:20:45.217Z,100561.16
2023-03-02T02:25:49.697Z,100554.44
2023-03-02T02:31:04.459Z,100556.97
2023-03-02T02:36:10.106Z,100556.97
2023-03-02T02:41:19.279Z,100554.47
2023-03-02T02:46:20.904Z,100556.97
2023-03-02T02:51:27.112Z,100551.91
2023-03-02T02:56:35.080Z,100549.34
2023-03-02T03:01:36.801Z,100555.94
2023-03-02T03:06:48.718Z,100563.38
2023-03-02T03:12:17.779Z,100564.09
2023-03-02T03:17:19.263Z,100569.03
2023-03-02T03:22:20.726Z,100575.69
2023-03-02T03:27:22.150Z,100573.16
2023-03-02T03:32:23.678Z,100566.44
2023-03-02T03:37:25.251Z,100558.84
2023-03-02T03:42:27.198Z,100560.41
2023-03-02T03:47:28.649Z,100570.38
2023-03-02T03:52:33.257Z,100567.81
2023-03-02T03:57:34.712Z,100568.53
2023-03-02T04:02:37.742Z,100580.19
2023-03-02T04:07:40.109Z,100567.63
2023-03-02T04:12:42.535Z,100575.94
2023-03-02T04:17:45.020Z,100582.56
2023-03-02T04:22:48.812Z,100589.22
2023-03-02T04:27:52.956Z,100592.53
2023-03-02T04:32:54.798Z,100581.56
2023-03-02T04:37:56.251Z,100579.03
2023-03-02T04:42:57.670Z,100579.81
2023-03-02T04:47:59.364Z,100578.09
2023-03-02T04:53:00.816Z,100583.06
2023-03-02T04:58:02.278Z,100580.50
2023-03-02T05:03:04.169Z,100587.16
2023-03-02T05:08:05.686Z,100582.13
2023-03-02T05:13:07.333Z,100575.41
2023-03-02T05:18:10.849Z,100569.47
2023-03-02T05:23:25.158Z,100568.63
2023-03-02T05:28:27.781Z,100564.47
2023-03-02T05:33:30.091Z,100566.97
2023-03-02T05:38:31.801Z,100567.84
2023-03-02T05:43:33.323Z,100576.19
2023-03-02T05:48:34.952Z,100580.31
2023-03-02T05:53:36.486Z,100585.31
2023-03-02T05:58:37.938Z,100585.31
2023-03-02T06:03:39.349Z,100586.97
2023-03-02T06:08:41.980Z,100589.50
2023-03-02T06:13:43.526Z,100591.19
2023-03-02T06:18:44.944Z,100595.41
2023-03-02T06:23:46.365Z,100604.66
2023-03-02T06:28:52.461Z,100607.31
2023-03-02T06:33:54.550Z,100613.28
2023-03-02T06:38:56.034Z,100615.22
2023-03-02T06:43:57.441Z,100629.00
2023-03-02T06:48:58.848Z,100620.22
2023-03-02T06:54:00.863Z,100624.94
2023-03-02T06:59:02.314Z,100627.63
2023-03-02T07:04:03.919Z,100636.94
2023-03-02T07:09:05.384Z,100632.00
2023-03-02T07:14:06.993Z,100635.47
2023-03-02T07:19:13.712Z,100635.63
2023-03-02T07:24:15.140Z,100640.88
2023-03-02T07:29:16.646Z,100631.75
2023-03-02T07:34:18.568Z,100635.09
2023-03-02T07:39:20.374Z,100647.47
2023-03-02T07:44:21.795Z,100647.19
2023-03-02T07:49:23.233Z,100642.78
2023-03-02T07:54:26.495Z,100647.31
2023-03-02T07:59:28.856Z,100654.31
2023-03-02T08:04:30.285Z,100656.88
2023-03-02T08:09:31.781Z,100654.34
2023-03-02T08:14:33.204Z,100654.34
2023-03-02T08:19:34.791Z,100656.03
2023-03-02T08:24:37.204Z,100658.47
2023-03-02T08:29:38.649Z,100658.22
2023-03-02T08:34:40.073Z,100665.72
2023-03-02T08:39:41.481Z,100669.94
2023-03-02T08:44:42.896Z,100667.38
2023-03-02T08:49:45.561Z,100659.69
2023-03-02T08:54:47.841Z,100656.06
2023-03-02T08:59:49.363Z,100643.16
2023-03-02T09:04:50.861Z,100646.50
2023-03-02T09:09:52.309Z,100646.34
2023-03-02T09:14:53.708Z,100648.69
2023-03-02T09:19:55.135Z,100638.22
2023-03-02T09:24:56.547Z,100651.81
2023-03-02T09:29:58.057Z,100648.91
2023-03-02T09:34:59.490Z,100645.94
2023-03-02T09:40:00.959Z,100644.06
2023-03-02T09:45:30.214Z,100645.41
2023-03-02T09:50:35.960Z,100638.94
2023-03-02T09:55:38.184Z,100638.84
2023-03-02T10:00:43.899Z,100642.72
2023-03-02T10:05:50.995Z,100639.59
2023-03-02T10:11:18.079Z,100640.63
2023-03-02T10:16:39.469Z,100633.94
2023-03-02T10:21:44.820Z,100623.28
2023-03-02T10:26:50.364Z,100621.94
2023-03-02T10:32:06.499Z,100625.06
2023-03-02T10:37:16.420Z,100631.19
2023-03-02T10:42:32.062Z,100631.34
2023-03-02T10:47:33.598Z,100632.41
2023-03-02T10:52:35.016Z,100629.66
2023-03-02T10:57:42.097Z,100617.94
2023-03-02T11:02:57.379Z,100620.97
2023-03-02T11:08:08.816Z,100615.94
2023-03-02T11:13:28.195Z,100624.22
2023-03-02T11:18:38.105Z,100614.75
2023-03-02T11:23:45.493Z,100613.97
2023-03-02T11:29:22.724Z,100615.72
2023-03-02T11:34:43.254Z,100623.53
2023-03-02T11:39:55.212Z,100626.34
2023-03-02T11:45:02.042Z,100613.84
2023-03-02T11:50:07.344Z,100598.84
2023-03-02T11:55:11.959Z,100594.13
2023-03-02T12:00:33.650Z,100600.81
2023-03-02T12:05:39.031Z,100601.69
2023-03-02T12:10:44.125Z,100596.34
2023-03-02T12:15:50.949Z,100599.63
2023-03-02T12:21:02.012Z,100592.22
2023-03-02T12:26:29.534Z,100580.19
2023-03-02T12:31:47.457Z,100582.03
2023-03-02T12:36:50.634Z,100579.00
2023-03-02T12:42:22.283Z,100562.69
2023-03-02T12:47:29.763Z,100563.63
2023-03-02T12:52:35.617Z,100559.59
2023-03-02T12:57:46.632Z,100554.88
2023-03-02T13:02:50.872Z,100557.63
2023-03-02T13:08:03.298Z,100549.34
2023-03-02T13:13:16.496Z,100545.19
2023-03-02T13:18:20.030Z,100544.13
2023-03-02T13:23:22.203Z,100546.19
2023-03-02T13:28:31.529Z,100534.72
2023-03-02T13:33:35.418Z,100536.59
2023-03-02T13:38:38.424Z,100536.72
2023-03-02T13:43:40.208Z,100533.66
2023-03-02T13:48:41.825Z,100529.47
2023-03-02T13:53:50.917Z,100527.75
2023-03-02T13:58:52.453Z,100524.63
2023-03-02T14:03:55.435Z,100524.97
2023-03-02T14:08:58.632Z,100515.84
2023-03-02T14:14:02.110Z,100520.94
2023-03-02T14:19:04.058Z,100513.41
2023-03-02T14:24:06.269Z,100507.66
2023-03-02T14:29:21.634Z,100510.22
2023-03-02T14:34:23.480Z,100506.97
2023-03-02T14:39:35.308Z,100503.34
2023-03-02T14:44:36.944Z,100500.66
2023-03-02T14:49:39.121Z,100491.38
2023-03-02T14:54:44.805Z,100489.59
2023-03-02T14:59:47.017Z,100498.22
2023-03-02T15:04:52.699Z,100497.56
2023-03-02T15:09:56.155Z,100500.00
2023-03-02T15:14:57.630Z,100494.75
2023-03-02T15:19:59.542Z,100500.75
2023-03-02T15:25:00.980Z,100504.88
2023-03-02T15:30:02.494Z,100499.88
2023-03-02T15:35:04.703Z,100499.88
2023-03-02T15:40:06.932Z,100505.75
2023-03-02T15:45:08.623Z,100499.75
2023-03-02T15:50:11.073Z,100508.25
2023-03-02T15:55:15.627Z,100499.81
2023-03-02T16:00:18.019Z,100499.06
2023-03-02T16:05:19.566Z,100505.16
2023-03-02T16:10:21.246Z,100512.94
2023-03-02T16:15:22.881Z,100513.97
2023-03-02T16:20:24.588Z,100524.41
2023-03-02T16:25:26.026Z,100524.25
2023-03-02T16:30:27.756Z,100530.16
2023-03-02T16:35:34.268Z,100542.75
2023-03-02T16:40:37.246Z,100546.56
2023-03-02T16:45:38.750Z,100562.28
2023-03-02T16:50:43.394Z,100564.72
2023-03-02T16:55:44.797Z,100563.47
2023-03-02T17:00:46.445Z,100567.28
2023-03-02T17:05:48.638Z,100576.13
2023-03-02T17:10:50.084Z,100585.63
2023-03-02T17:15:51.592Z,100590.13
2023-03-02T17:20:55.168Z,100591.25
2023-03-02T17:25:57.410Z,100594.78
2023-03-02T17:31:00.514Z,100596.66
2023-03-02T17:36:07.644Z,100609.41
2023-03-02T17:41:11.578Z,100618.78
2023-03-02T17:46:20.486Z,100622.19
2023-03-02T17:51:23.316Z,100630.69
2023-03-02T17:56:26.737Z,100638.34
2023-03-02T18:01:29.841Z,100637.56
2023-03-02T18:06:31.846Z,100644.38
2023-03-02T18:11:33.599Z,100651.16
2023-03-02T18:16:35.576Z,100662.19
2023-03-02T18:21:38.470Z,100668.97
2023-03-02T18:26:40.002Z,100678.25
2023-03-02T18:31:41.639Z,100677.44
2023-03-02T18:36:43.114Z,100682.56
2023-03-02T18:41:44.634Z,100670.78
2023-03-02T18:46:46.508Z,100679.19
2023-03-02T18:51:48.536Z,100679.13
2023-03-02T18:56:49.977Z,100688.44
2023-03-02T19:01:51.469Z,100694.28
2023-03-02T19:06:55.632Z,100700.97
2023-03-02T19:11:57.062Z,100697.56
2023-03-02T19:16:58.671Z,100700.97
2023-03-02T19:22:01.102Z,100702.75
2023-03-02T19:27:02.727Z,100704.44
2023-03-02T19:32:04.736Z,100704.41
2023-03-02T19:37:06.200Z,100699.34
2023-03-02T19:42:07.787Z,100700.19
2023-03-02T19:47:09.328Z,100706.09
2023-03-02T19:52:10.764Z,100719.56
2023-03-02T19:57:12.273Z,100721.28
2023-03-02T20:02:15.056Z,100720.47
2023-03-02T20:07:16.538Z,100718.78
2023-03-02T20:12:18.127Z,100730.63
2023-03-02T20:17:20.856Z,100729.78
2023-03-02T20:22:25.841Z,100727.25
2023-03-02T20:27:27.297Z,100729.00
2023-03-02T20:32:30.039Z,100723.16
2023-03-02T20:37:31.756Z,100719.84
2023-03-02T20:42:34.074Z,100731.66
2023-03-02T20:47:35.633Z,100727.47
2023-03-02T20:52:37.740Z,100731.69
2023-03-02T20:57:39.773Z,100736.72
2023-03-02T21:02:41.467Z,100746.84
2023-03-02T21:07:43.569Z,100741.81
2023-03-02T21:12:45.692Z,100751.91
2023-03-02T21:17:47.514Z,100748.53
2023-03-02T21:22:49.051Z,100744.34
2023-03-02T21:27:50.525Z,100737.59
2023-03-02T21:32:51.959Z,100738.44
2023-03-02T21:37:57.191Z,100739.28
2023-03-02T21:43:00.369Z,100742.63
2023-03-02T21:48:02.307Z,100735.94
2023-03-02T21:53:04.294Z,100735.91
2023-03-02T21:58:06.192Z,100740.94
2023-03-02T22:03:07.848Z,100735.06
2023-03-02T22:08:13.504Z,100732.53
2023-03-02T22:13:23.930Z,100727.50
2023-03-02T22:18:27.041Z,100732.53
2023-03-02T22:23:28.566Z,100735.84
2023-03-02T22:28:30.207Z,100742.56
2023-03-02T22:33:33.925Z,100736.66
2023-03-02T22:38:35.415Z,100739.16
2023-03-02T22:43:36.867Z,100734.09
2023-03-02T22:48:38.604Z,100737.44
2023-03-02T22:53:46.368Z,100737.44
2023-03-02T22:58:50.134Z,100732.38
2023-03-02T23:04:12.949Z,100729.00
2023-03-02T23:09:23.930Z,100728.09
2023-03-02T23:14:28.580Z,100738.13
2023-03-02T23:19:31.422Z,100736.44
2023-03-02T23:24:32.857Z,100739.78
2023-03-02T23:29:35.077Z,100742.25
2023-03-02T23:34:36.518Z,100745.63
2023-03-02T23:39:37.938Z,100744.75
2023-03-02T23:44:39.426Z,100755.66
2023-03-02T23:49:40.919Z,100748.09
2023-03-02T23:54:43.340Z,100752.28
2023-03-02T23:59:44.762Z,100753.88
